sensor_id;sensor_type;location;lat;lon;timestamp;temperature;humidity
22430;DHT22;11382;48.086;11.632;2023-07-13T00:02:25;17.80;99.90
22430;DHT22;11382;48.086;11.632;2023-07-13T00:04:54;17.80;99.90
22430;DHT22;11382;48.086;11.632;2023-07-13T00:07:23;17.80;99.90
22430;DHT22;11382;48.086;11.632;2023-07-13T00:09:51;17.70;99.90
22430;DHT22;11382;48.086;11.632;2023-07-13T00:12:27;17.80;99.90
22430;DHT22;11382;48.086;11.632;2023-07-13T00:14:56;17.80;99.90
22430;DHT22;11382;48.086;11.632;2023-07-13T00:17:25;17.80;99.90
22430;DHT22;11382;48.086;11.632;2023-07-13T00:19:54;17.80;99.90
22430;DHT22;11382;48.086;11.632;2023-07-13T00:22:24;17.80;99.90
22430;DHT22;11382;48.086;11.632;2023-07-13T00:24:53;17.80;99.90
22430;DHT22;11382;48.086;11.632;2023-07-13T00:27:23;17.80;99.90
22430;DHT22;11382;48.086;11.632;2023-07-13T00:29:53;17.90;99.90
22430;DHT22;11382;48.086;11.632;2023-07-13T00:32:21;17.90;99.90
22430;DHT22;11382;48.086;11.632;2023-07-13T00:34:49;18.00;99.90
22430;DHT22;11382;48.086;11.632;2023-07-13T00:37:18;18.00;99.90
22430;DHT22;11382;48.086;11.632;2023-07-13T00:39:47;18.00;99.90
22430;DHT22;11382;48.086;11.632;2023-07-13T00:42:15;18.00;99.90
22430;DHT22;11382;48.086;11.632;2023-07-13T00:45:05;18.00;99.90
22430;DHT22;11382;48.086;11.632;2023-07-13T00:47:33;18.00;99.90
22430;DHT22;11382;48.086;11.632;2023-07-13T00:50:03;18.00;99.90
22430;DHT22;11382;48.086;11.632;2023-07-13T00:52:31;18.00;99.90
22430;DHT22;11382;48.086;11.632;2023-07-13T00:55:01;18.10;99.90
22430;DHT22;11382;48.086;11.632;2023-07-13T00:57:29;18.00;99.90
22430;DHT22;11382;48.086;11.632;2023-07-13T00:59:59;18.00;99.90
22430;DHT22;11382;48.086;11.632;2023-07-13T01:02:34;18.00;99.90
22430;DHT22;11382;48.086;11.632;2023-07-13T01:05:09;17.90;99.90
22430;DHT22;11382;48.086;11.632;2023-07-13T01:07:37;17.90;99.90
22430;DHT22;11382;48.086;11.632;2023-07-13T01:10:08;17.90;99.90
22430;DHT22;11382;48.086;11.632;2023-07-13T01:12:36;18.00;99.90
22430;DHT22;11382;48.086;11.632;2023-07-13T01:15:05;18.00;99.90
22430;DHT22;11382;48.086;11.632;2023-07-13T01:17:34;18.00;99.90
22430;DHT22;11382;48.086;11.632;2023-07-13T01:20:02;18.00;99.90
22430;DHT22;11382;48.086;11.632;2023-07-13T01:22:33;18.00;99.90
22430;DHT22;11382;48.086;11.632;2023-07-13T01:25:02;17.90;99.90
22430;DHT22;11382;48.086;11.632;2023-07-13T01:27:30;17.90;99.90
22430;DHT22;11382;48.086;11.632;2023-07-13T01:29:57;17.90;99.90
22430;DHT22;11382;48.086;11.632;2023-07-13T01:32:34;17.90;99.90
22430;DHT22;11382;48.086;11.632;2023-07-13T01:35:04;17.90;99.90
22430;DHT22;11382;48.086;11.632;2023-07-13T01:37:33;17.90;99.90
22430;DHT22;11382;48.086;11.632;2023-07-13T01:40:03;17.90;99.90
22430;DHT22;11382;48.086;11.632;2023-07-13T01:42:31;17.90;99.90
22430;DHT22;11382;48.086;11.632;2023-07-13T01:44:59;17.90;99.90
22430;DHT22;11382;48.086;11.632;2023-07-13T01:47:30;17.90;99.90
22430;DHT22;11382;48.086;11.632;2023-07-13T01:49:58;17.90;99.90
22430;DHT22;11382;48.086;11.632;2023-07-13T01:52:26;17.90;99.90
22430;DHT22;11382;48.086;11.632;2023-07-13T01:54:55;18.00;99.90
22430;DHT22;11382;48.086;11.632;2023-07-13T01:57:23;18.00;99.90
22430;DHT22;11382;48.086;11.632;2023-07-13T01:59:51;18.00;99.90
22430;DHT22;11382;48.086;11.632;2023-07-13T02:02:19;17.90;99.90
22430;DHT22;11382;48.086;11.632;2023-07-13T02:04:47;17.90;99.90
22430;DHT22;11382;48.086;11.632;2023-07-13T02:07:15;17.90;99.90
22430;DHT22;11382;48.086;11.632;2023-07-13T02:09:43;17.90;99.90
22430;DHT22;11382;48.086;11.632;2023-07-13T02:12:13;17.90;99.90
22430;DHT22;11382;48.086;11.632;2023-07-13T02:14:41;18.00;99.90
22430;DHT22;11382;48.086;11.632;2023-07-13T02:17:10;18.10;99.90
22430;DHT22;11382;48.086;11.632;2023-07-13T02:19:38;18.10;99.90
22430;DHT22;11382;48.086;11.632;2023-07-13T02:22:06;18.10;99.90
22430;DHT22;11382;48.086;11.632;2023-07-13T02:24:34;18.10;99.90
22430;DHT22;11382;48.086;11.632;2023-07-13T02:27:02;18.10;99.90
22430;DHT22;11382;48.086;11.632;2023-07-13T02:29:32;18.10;99.90
22430;DHT22;11382;48.086;11.632;2023-07-13T02:31:59;18.10;99.90
22430;DHT22;11382;48.086;11.632;2023-07-13T02:34:27;18.10;99.90
22430;DHT22;11382;48.086;11.632;2023-07-13T02:36:59;18.00;99.90
22430;DHT22;11382;48.086;11.632;2023-07-13T02:39:27;17.90;99.90
22430;DHT22;11382;48.086;11.632;2023-07-13T02:41:56;17.90;99.90
22430;DHT22;11382;48.086;11.632;2023-07-13T02:44:23;17.90;99.90
22430;DHT22;11382;48.086;11.632;2023-07-13T02:46:53;17.90;99.90
22430;DHT22;11382;48.086;11.632;2023-07-13T02:49:21;18.00;99.90
22430;DHT22;11382;48.086;11.632;2023-07-13T02:51:49;18.00;99.90
22430;DHT22;11382;48.086;11.632;2023-07-13T02:54:17;18.00;99.90
22430;DHT22;11382;48.086;11.632;2023-07-13T02:56:45;18.00;99.90
22430;DHT22;11382;48.086;11.632;2023-07-13T02:59:13;18.00;99.90
22430;DHT22;11382;48.086;11.632;2023-07-13T03:01:41;18.00;99.90
22430;DHT22;11382;48.086;11.632;2023-07-13T03:04:11;18.00;99.90
22430;DHT22;11382;48.086;11.632;2023-07-13T03:06:40;18.10;99.90
22430;DHT22;11382;48.086;11.632;2023-07-13T03:09:08;18.00;99.90
22430;DHT22;11382;48.086;11.632;2023-07-13T03:11:40;18.00;99.90
22430;DHT22;11382;48.086;11.632;2023-07-13T03:14:21;18.00;99.90
22430;DHT22;11382;48.086;11.632;2023-07-13T03:16:50;18.00;99.90
22430;DHT22;11382;48.086;11.632;2023-07-13T03:19:23;18.00;99.90
22430;DHT22;11382;48.086;11.632;2023-07-13T03:21:51;17.90;99.90
22430;DHT22;11382;48.086;11.632;2023-07-13T03:24:20;18.00;99.90
22430;DHT22;11382;48.086;11.632;2023-07-13T03:26:52;17.90;99.90
22430;DHT22;11382;48.086;11.632;2023-07-13T03:29:21;17.80;99.90
22430;DHT22;11382;48.086;11.632;2023-07-13T03:31:50;17.80;99.90
22430;DHT22;11382;48.086;11.632;2023-07-13T03:34:18;17.90;99.90
22430;DHT22;11382;48.086;11.632;2023-07-13T03:36:48;17.80;99.90
22430;DHT22;11382;48.086;11.632;2023-07-13T03:39:16;17.70;99.90
22430;DHT22;11382;48.086;11.632;2023-07-13T03:41:49;17.70;99.90
22430;DHT22;11382;48.086;11.632;2023-07-13T03:44:18;17.60;99.90
22430;DHT22;11382;48.086;11.632;2023-07-13T03:46:50;17.60;99.90
22430;DHT22;11382;48.086;11.632;2023-07-13T03:49:19;17.60;99.90
22430;DHT22;11382;48.086;11.632;2023-07-13T03:51:48;17.60;99.90
22430;DHT22;11382;48.086;11.632;2023-07-13T03:54:20;17.50;99.90
22430;DHT22;11382;48.086;11.632;2023-07-13T03:56:48;17.50;99.90
22430;DHT22;11382;48.086;11.632;2023-07-13T03:59:17;17.40;99.90
22430;DHT22;11382;48.086;11.632;2023-07-13T04:01:45;17.40;99.90
22430;DHT22;11382;48.086;11.632;2023-07-13T04:04:13;17.40;99.90
22430;DHT22;11382;48.086;11.632;2023-07-13T04:06:42;17.30;99.90
22430;DHT22;11382;48.086;11.632;2023-07-13T04:09:12;17.30;99.90
22430;DHT22;11382;48.086;11.632;2023-07-13T04:11:41;17.30;99.90
22430;DHT22;11382;48.086;11.632;2023-07-13T04:14:09;17.30;99.90
22430;DHT22;11382;48.086;11.632;2023-07-13T04:16:37;17.30;99.90
22430;DHT22;11382;48.086;11.632;2023-07-13T04:19:05;17.30;99.90
22430;DHT22;11382;48.086;11.632;2023-07-13T04:21:33;17.20;99.90
22430;DHT22;11382;48.086;11.632;2023-07-13T04:24:01;17.10;99.90
22430;DHT22;11382;48.086;11.632;2023-07-13T04:26:32;17.10;99.90
22430;DHT22;11382;48.086;11.632;2023-07-13T04:29:02;17.10;99.90
22430;DHT22;11382;48.086;11.632;2023-07-13T04:31:31;17.10;99.90
22430;DHT22;11382;48.086;11.632;2023-07-13T04:33:59;17.10;99.90
22430;DHT22;11382;48.086;11.632;2023-07-13T04:36:27;17.20;99.90
22430;DHT22;11382;48.086;11.632;2023-07-13T04:38:55;17.30;99.90
22430;DHT22;11382;48.086;11.632;2023-07-13T04:41:23;17.30;99.90
22430;DHT22;11382;48.086;11.632;2023-07-13T04:43:52;17.30;99.90
22430;DHT22;11382;48.086;11.632;2023-07-13T04:46:23;17.20;99.90
22430;DHT22;11382;48.086;11.632;2023-07-13T04:48:51;17.20;99.90
22430;DHT22;11382;48.086;11.632;2023-07-13T04:51:20;17.20;99.90
22430;DHT22;11382;48.086;11.632;2023-07-13T04:53:48;17.20;99.90
22430;DHT22;11382;48.086;11.632;2023-07-13T04:56:22;17.20;99.90
22430;DHT22;11382;48.086;11.632;2023-07-13T04:58:50;17.30;99.90
22430;DHT22;11382;48.086;11.632;2023-07-13T05:01:19;17.50;99.90
22430;DHT22;11382;48.086;11.632;2023-07-13T05:03:47;17.60;99.90
22430;DHT22;11382;48.086;11.632;2023-07-13T05:06:15;17.60;99.90
22430;DHT22;11382;48.086;11.632;2023-07-13T05:08:43;17.60;99.90
22430;DHT22;11382;48.086;11.632;2023-07-13T05:11:11;17.60;99.90
22430;DHT22;11382;48.086;11.632;2023-07-13T05:13:39;17.60;99.90
22430;DHT22;11382;48.086;11.632;2023-07-13T05:16:08;17.60;99.90
22430;DHT22;11382;48.086;11.632;2023-07-13T05:18:37;17.50;99.90
22430;DHT22;11382;48.086;11.632;2023-07-13T05:21:10;17.60;99.90
22430;DHT22;11382;48.086;11.632;2023-07-13T05:23:39;17.70;99.90
22430;DHT22;11382;48.086;11.632;2023-07-13T05:26:08;17.80;99.90
22430;DHT22;11382;48.086;11.632;2023-07-13T05:28:37;17.90;99.90
22430;DHT22;11382;48.086;11.632;2023-07-13T05:31:07;17.90;99.90
22430;DHT22;11382;48.086;11.632;2023-07-13T05:33:37;17.90;99.90
22430;DHT22;11382;48.086;11.632;2023-07-13T05:36:05;17.90;99.90
22430;DHT22;11382;48.086;11.632;2023-07-13T05:38:34;17.90;99.90
22430;DHT22;11382;48.086;11.632;2023-07-13T05:41:02;17.80;99.90
22430;DHT22;11382;48.086;11.632;2023-07-13T05:43:34;17.90;99.90
22430;DHT22;11382;48.086;11.632;2023-07-13T05:46:02;18.10;99.90
22430;DHT22;11382;48.086;11.632;2023-07-13T05:48:30;18.20;99.90
22430;DHT22;11382;48.086;11.632;2023-07-13T05:51:00;18.30;99.90
22430;DHT22;11382;48.086;11.632;2023-07-13T05:53:29;18.50;99.90
22430;DHT22;11382;48.086;11.632;2023-07-13T05:55:57;18.60;99.90
22430;DHT22;11382;48.086;11.632;2023-07-13T05:58:28;18.70;99.90
22430;DHT22;11382;48.086;11.632;2023-07-13T06:01:01;18.70;99.90
22430;DHT22;11382;48.086;11.632;2023-07-13T06:03:30;18.80;99.90
22430;DHT22;11382;48.086;11.632;2023-07-13T06:06:00;19.00;99.90
22430;DHT22;11382;48.086;11.632;2023-07-13T06:08:28;19.20;99.90
22430;DHT22;11382;48.086;11.632;2023-07-13T06:11:02;19.30;99.90
22430;DHT22;11382;48.086;11.632;2023-07-13T06:13:30;19.30;99.90
22430;DHT22;11382;48.086;11.632;2023-07-13T06:15:58;19.30;99.90
22430;DHT22;11382;48.086;11.632;2023-07-13T06:18:26;19.30;99.90
22430;DHT22;11382;48.086;11.632;2023-07-13T06:20:54;19.50;99.90
22430;DHT22;11382;48.086;11.632;2023-07-13T06:23:24;19.40;99.90
22430;DHT22;11382;48.086;11.632;2023-07-13T06:25:52;19.30;99.90
22430;DHT22;11382;48.086;11.632;2023-07-13T06:28:20;19.40;99.90
22430;DHT22;11382;48.086;11.632;2023-07-13T06:30:47;19.50;99.90
22430;DHT22;11382;48.086;11.632;2023-07-13T06:33:15;19.50;99.90
22430;DHT22;11382;48.086;11.632;2023-07-13T06:35:43;19.50;99.90
22430;DHT22;11382;48.086;11.632;2023-07-13T06:38:11;19.40;99.90
22430;DHT22;11382;48.086;11.632;2023-07-13T06:40:41;19.40;99.90
22430;DHT22;11382;48.086;11.632;2023-07-13T06:43:09;19.30;99.90
22430;DHT22;11382;48.086;11.632;2023-07-13T06:45:41;19.10;99.90
22430;DHT22;11382;48.086;11.632;2023-07-13T06:48:10;19.20;99.90
22430;DHT22;11382;48.086;11.632;2023-07-13T06:50:38;19.30;99.90
22430;DHT22;11382;48.086;11.632;2023-07-13T06:53:06;19.60;99.90
22430;DHT22;11382;48.086;11.632;2023-07-13T06:55:33;19.70;99.90
22430;DHT22;11382;48.086;11.632;2023-07-13T06:58:03;19.70;99.90
22430;DHT22;11382;48.086;11.632;2023-07-13T07:00:31;19.60;99.90
22430;DHT22;11382;48.086;11.632;2023-07-13T07:02:59;19.70;99.90
22430;DHT22;11382;48.086;11.632;2023-07-13T07:05:27;19.70;99.90
22430;DHT22;11382;48.086;11.632;2023-07-13T07:07:55;19.60;99.90
22430;DHT22;11382;48.086;11.632;2023-07-13T07:10:23;19.50;99.90
22430;DHT22;11382;48.086;11.632;2023-07-13T07:12:51;19.40;99.90
22430;DHT22;11382;48.086;11.632;2023-07-13T07:15:20;19.50;99.90
22430;DHT22;11382;48.086;11.632;2023-07-13T07:17:48;20.00;99.90
22430;DHT22;11382;48.086;11.632;2023-07-13T07:20:17;20.20;99.90
22430;DHT22;11382;48.086;11.632;2023-07-13T07:22:44;20.50;99.90
22430;DHT22;11382;48.086;11.632;2023-07-13T07:25:12;20.60;99.90
22430;DHT22;11382;48.086;11.632;2023-07-13T07:27:40;20.80;99.90
22430;DHT22;11382;48.086;11.632;2023-07-13T07:30:12;20.80;99.90
22430;DHT22;11382;48.086;11.632;2023-07-13T07:32:44;21.10;99.90
22430;DHT22;11382;48.086;11.632;2023-07-13T07:35:15;21.00;99.90
22430;DHT22;11382;48.086;11.632;2023-07-13T07:37:43;21.10;99.90
22430;DHT22;11382;48.086;11.632;2023-07-13T07:40:14;20.90;99.90
22430;DHT22;11382;48.086;11.632;2023-07-13T07:42:45;20.80;99.90
22430;DHT22;11382;48.086;11.632;2023-07-13T07:45:14;20.50;99.90
22430;DHT22;11382;48.086;11.632;2023-07-13T07:47:43;20.20;99.90
22430;DHT22;11382;48.086;11.632;2023-07-13T07:50:11;20.20;99.90
22430;DHT22;11382;48.086;11.632;2023-07-13T07:52:40;20.20;99.90
22430;DHT22;11382;48.086;11.632;2023-07-13T07:55:08;20.20;99.90
22430;DHT22;11382;48.086;11.632;2023-07-13T07:57:39;20.00;99.90
22430;DHT22;11382;48.086;11.632;2023-07-13T08:00:10;20.00;99.90
22430;DHT22;11382;48.086;11.632;2023-07-13T08:02:43;19.80;99.90
22430;DHT22;11382;48.086;11.632;2023-07-13T08:05:14;20.00;99.90
22430;DHT22;11382;48.086;11.632;2023-07-13T08:07:45;20.00;99.90
22430;DHT22;11382;48.086;11.632;2023-07-13T08:10:13;19.90;99.90
22430;DHT22;11382;48.086;11.632;2023-07-13T08:12:41;19.80;99.90
22430;DHT22;11382;48.086;11.632;2023-07-13T08:15:29;19.70;99.90
22430;DHT22;11382;48.086;11.632;2023-07-13T08:17:59;19.60;99.90
22430;DHT22;11382;48.086;11.632;2023-07-13T08:20:27;19.40;99.90
22430;DHT22;11382;48.086;11.632;2023-07-13T08:22:55;19.20;99.90
22430;DHT22;11382;48.086;11.632;2023-07-13T08:25:23;19.10;99.90
22430;DHT22;11382;48.086;11.632;2023-07-13T08:27:50;19.00;99.90
22430;DHT22;11382;48.086;11.632;2023-07-13T08:30:18;18.90;99.90
22430;DHT22;11382;48.086;11.632;2023-07-13T08:32:46;18.80;99.90
22430;DHT22;11382;48.086;11.632;2023-07-13T08:35:16;18.90;99.90
22430;DHT22;11382;48.086;11.632;2023-07-13T08:37:44;18.90;99.90
22430;DHT22;11382;48.086;11.632;2023-07-13T08:40:12;18.90;99.90
22430;DHT22;11382;48.086;11.632;2023-07-13T08:42:45;19.10;99.90
22430;DHT22;11382;48.086;11.632;2023-07-13T08:45:18;19.20;99.90
22430;DHT22;11382;48.086;11.632;2023-07-13T08:47:52;19.00;99.90
22430;DHT22;11382;48.086;11.632;2023-07-13T08:50:27;18.80;99.90
22430;DHT22;11382;48.086;11.632;2023-07-13T08:52:56;18.70;99.90
22430;DHT22;11382;48.086;11.632;2023-07-13T08:55:30;18.60;99.90
22430;DHT22;11382;48.086;11.632;2023-07-13T08:58:03;18.70;99.90
22430;DHT22;11382;48.086;11.632;2023-07-13T09:00:40;18.60;99.90
22430;DHT22;11382;48.086;11.632;2023-07-13T09:03:18;18.60;99.90
22430;DHT22;11382;48.086;11.632;2023-07-13T09:05:52;18.70;99.90
22430;DHT22;11382;48.086;11.632;2023-07-13T09:08:37;18.90;99.90
22430;DHT22;11382;48.086;11.632;2023-07-13T09:11:19;19.00;99.90
22430;DHT22;11382;48.086;11.632;2023-07-13T09:13:57;19.00;99.90
22430;DHT22;11382;48.086;11.632;2023-07-13T09:16:28;19.20;99.90
22430;DHT22;11382;48.086;11.632;2023-07-13T09:18:59;19.50;99.90
22430;DHT22;11382;48.086;11.632;2023-07-13T09:21:31;19.70;99.90
22430;DHT22;11382;48.086;11.632;2023-07-13T09:24:23;19.70;99.90
22430;DHT22;11382;48.086;11.632;2023-07-13T09:26:55;19.50;99.90
22430;DHT22;11382;48.086;11.632;2023-07-13T09:29:28;19.50;99.90
22430;DHT22;11382;48.086;11.632;2023-07-13T09:32:00;19.60;99.90
22430;DHT22;11382;48.086;11.632;2023-07-13T09:34:29;19.60;99.90
22430;DHT22;11382;48.086;11.632;2023-07-13T09:36:59;19.70;99.90
22430;DHT22;11382;48.086;11.632;2023-07-13T09:39:30;19.70;99.90
22430;DHT22;11382;48.086;11.632;2023-07-13T09:42:03;19.70;99.90
22430;DHT22;11382;48.086;11.632;2023-07-13T09:44:36;20.00;99.90
22430;DHT22;11382;48.086;11.632;2023-07-13T09:47:15;20.20;99.90
22430;DHT22;11382;48.086;11.632;2023-07-13T09:49:44;20.30;99.90
22430;DHT22;11382;48.086;11.632;2023-07-13T09:52:15;20.20;99.90
22430;DHT22;11382;48.086;11.632;2023-07-13T09:54:49;20.20;99.90
22430;DHT22;11382;48.086;11.632;2023-07-13T09:57:19;20.00;99.90
22430;DHT22;11382;48.086;11.632;2023-07-13T10:00:00;20.20;99.90
22430;DHT22;11382;48.086;11.632;2023-07-13T10:02:33;20.40;99.90
22430;DHT22;11382;48.086;11.632;2023-07-13T10:05:03;20.40;99.90
22430;DHT22;11382;48.086;11.632;2023-07-13T10:07:37;20.50;99.90
22430;DHT22;11382;48.086;11.632;2023-07-13T10:10:15;20.70;99.90
22430;DHT22;11382;48.086;11.632;2023-07-13T10:12:44;21.20;99.90
22430;DHT22;11382;48.086;11.632;2023-07-13T10:15:15;21.60;99.90
22430;DHT22;11382;48.086;11.632;2023-07-13T10:17:52;22.10;99.90
22430;DHT22;11382;48.086;11.632;2023-07-13T10:20:22;22.80;99.90
22430;DHT22;11382;48.086;11.632;2023-07-13T10:22:54;23.80;99.90
22430;DHT22;11382;48.086;11.632;2023-07-13T10:25:26;24.60;99.90
22430;DHT22;11382;48.086;11.632;2023-07-13T10:28:00;25.50;99.90
22430;DHT22;11382;48.086;11.632;2023-07-13T10:30:32;26.60;99.90
22430;DHT22;11382;48.086;11.632;2023-07-13T10:33:05;27.80;99.90
22430;DHT22;11382;48.086;11.632;2023-07-13T10:35:36;29.40;99.90
22430;DHT22;11382;48.086;11.632;2023-07-13T10:38:10;31.20;97.10
22430;DHT22;11382;48.086;11.632;2023-07-13T10:40:40;30.40;93.30
22430;DHT22;11382;48.086;11.632;2023-07-13T10:43:15;28.60;94.60
22430;DHT22;11382;48.086;11.632;2023-07-13T10:45:47;27.40;98.10
22430;DHT22;11382;48.086;11.632;2023-07-13T10:48:17;27.70;96.30
22430;DHT22;11382;48.086;11.632;2023-07-13T10:50:48;29.00;92.80
22430;DHT22;11382;48.086;11.632;2023-07-13T10:53:20;31.30;90.00
22430;DHT22;11382;48.086;11.632;2023-07-13T10:55:59;31.70;87.70
22430;DHT22;11382;48.086;11.632;2023-07-13T10:58:33;33.50;79.40
22430;DHT22;11382;48.086;11.632;2023-07-13T11:01:09;33.60;76.90
22430;DHT22;11382;48.086;11.632;2023-07-13T11:03:47;33.10;78.10
22430;DHT22;11382;48.086;11.632;2023-07-13T11:06:31;31.60;80.70
22430;DHT22;11382;48.086;11.632;2023-07-13T11:09:33;31.40;79.90
22430;DHT22;11382;48.086;11.632;2023-07-13T11:12:08;30.30;81.50
22430;DHT22;11382;48.086;11.632;2023-07-13T11:15:05;29.20;85.80
22430;DHT22;11382;48.086;11.632;2023-07-13T11:17:38;28.10;86.00
22430;DHT22;11382;48.086;11.632;2023-07-13T11:20:39;27.70;88.10
22430;DHT22;11382;48.086;11.632;2023-07-13T11:23:28;28.00;88.20
22430;DHT22;11382;48.086;11.632;2023-07-13T11:26:00;28.40;84.70
22430;DHT22;11382;48.086;11.632;2023-07-13T11:28:31;28.00;87.50
22430;DHT22;11382;48.086;11.632;2023-07-13T11:31:13;28.60;85.70
22430;DHT22;11382;48.086;11.632;2023-07-13T11:33:52;28.60;86.50
22430;DHT22;11382;48.086;11.632;2023-07-13T11:36:23;29.40;84.60
22430;DHT22;11382;48.086;11.632;2023-07-13T11:39:00;29.60;86.40
22430;DHT22;11382;48.086;11.632;2023-07-13T11:41:33;29.50;82.80
22430;DHT22;11382;48.086;11.632;2023-07-13T11:44:11;29.50;81.60
22430;DHT22;11382;48.086;11.632;2023-07-13T11:46:45;29.10;75.60
22430;DHT22;11382;48.086;11.632;2023-07-13T11:49:19;29.60;75.70
22430;DHT22;11382;48.086;11.632;2023-07-13T11:51:51;29.90;72.80
22430;DHT22;11382;48.086;11.632;2023-07-13T11:54:25;30.70;69.10
22430;DHT22;11382;48.086;11.632;2023-07-13T11:56:58;31.40;71.40
22430;DHT22;11382;48.086;11.632;2023-07-13T11:59:30;30.90;68.20
22430;DHT22;11382;48.086;11.632;2023-07-13T12:02:00;30.40;66.60
22430;DHT22;11382;48.086;11.632;2023-07-13T12:04:32;28.80;69.30
22430;DHT22;11382;48.086;11.632;2023-07-13T12:07:06;27.80;72.90
22430;DHT22;11382;48.086;11.632;2023-07-13T12:09:35;27.50;77.00
22430;DHT22;11382;48.086;11.632;2023-07-13T12:12:10;27.40;76.50
22430;DHT22;11382;48.086;11.632;2023-07-13T12:14:39;27.80;77.30
22430;DHT22;11382;48.086;11.632;2023-07-13T12:17:20;27.30;77.30
22430;DHT22;11382;48.086;11.632;2023-07-13T12:19:49;27.20;76.70
22430;DHT22;11382;48.086;11.632;2023-07-13T12:22:19;27.40;78.90
22430;DHT22;11382;48.086;11.632;2023-07-13T12:24:51;27.70;79.00
22430;DHT22;11382;48.086;11.632;2023-07-13T12:27:24;27.90;76.50
22430;DHT22;11382;48.086;11.632;2023-07-13T12:29:59;27.60;78.20
22430;DHT22;11382;48.086;11.632;2023-07-13T12:32:27;27.20;77.50
22430;DHT22;11382;48.086;11.632;2023-07-13T12:35:14;27.20;77.50
22430;DHT22;11382;48.086;11.632;2023-07-13T12:37:43;26.80;77.90
22430;DHT22;11382;48.086;11.632;2023-07-13T12:40:14;27.00;75.80
22430;DHT22;11382;48.086;11.632;2023-07-13T12:42:46;26.60;81.50
22430;DHT22;11382;48.086;11.632;2023-07-13T12:45:19;26.90;84.20
22430;DHT22;11382;48.086;11.632;2023-07-13T12:47:49;27.50;81.30
22430;DHT22;11382;48.086;11.632;2023-07-13T12:50:21;27.50;81.60
22430;DHT22;11382;48.086;11.632;2023-07-13T12:52:51;27.40;80.50
22430;DHT22;11382;48.086;11.632;2023-07-13T12:55:21;27.30;79.00
22430;DHT22;11382;48.086;11.632;2023-07-13T12:57:54;27.50;78.40
22430;DHT22;11382;48.086;11.632;2023-07-13T13:00:26;26.90;81.00
22430;DHT22;11382;48.086;11.632;2023-07-13T13:02:56;26.80;79.80
22430;DHT22;11382;48.086;11.632;2023-07-13T13:05:28;26.30;84.30
22430;DHT22;11382;48.086;11.632;2023-07-13T13:07:57;26.80;82.80
22430;DHT22;11382;48.086;11.632;2023-07-13T13:10:25;27.00;79.90
22430;DHT22;11382;48.086;11.632;2023-07-13T13:12:55;26.90;82.10
22430;DHT22;11382;48.086;11.632;2023-07-13T13:15:23;27.20;83.30
22430;DHT22;11382;48.086;11.632;2023-07-13T13:17:51;27.20;83.60
22430;DHT22;11382;48.086;11.632;2023-07-13T13:20:20;27.00;81.20
22430;DHT22;11382;48.086;11.632;2023-07-13T13:22:48;26.90;83.20
22430;DHT22;11382;48.086;11.632;2023-07-13T13:25:17;26.80;82.80
22430;DHT22;11382;48.086;11.632;2023-07-13T13:27:47;26.50;82.00
22430;DHT22;11382;48.086;11.632;2023-07-13T13:30:18;26.50;82.40
22430;DHT22;11382;48.086;11.632;2023-07-13T13:32:47;26.60;85.60
22430;DHT22;11382;48.086;11.632;2023-07-13T13:35:16;26.50;86.20
22430;DHT22;11382;48.086;11.632;2023-07-13T13:37:45;26.50;82.80
22430;DHT22;11382;48.086;11.632;2023-07-13T13:40:15;26.60;85.40
22430;DHT22;11382;48.086;11.632;2023-07-13T13:42:44;26.60;85.00
22430;DHT22;11382;48.086;11.632;2023-07-13T13:45:13;26.60;81.70
22430;DHT22;11382;48.086;11.632;2023-07-13T13:47:44;26.00;79.70
22430;DHT22;11382;48.086;11.632;2023-07-13T13:50:14;25.90;83.80
22430;DHT22;11382;48.086;11.632;2023-07-13T13:52:42;26.20;82.70
22430;DHT22;11382;48.086;11.632;2023-07-13T13:55:13;25.80;83.90
22430;DHT22;11382;48.086;11.632;2023-07-13T13:57:41;25.50;82.80
22430;DHT22;11382;48.086;11.632;2023-07-13T14:00:10;26.10;85.50
22430;DHT22;11382;48.086;11.632;2023-07-13T14:02:44;26.50;83.40
22430;DHT22;11382;48.086;11.632;2023-07-13T14:05:19;26.70;84.40
22430;DHT22;11382;48.086;11.632;2023-07-13T14:07:47;26.70;82.90
22430;DHT22;11382;48.086;11.632;2023-07-13T14:10:17;26.10;84.00
22430;DHT22;11382;48.086;11.632;2023-07-13T14:12:48;26.10;85.90
22430;DHT22;11382;48.086;11.632;2023-07-13T14:15:20;26.20;84.00
22430;DHT22;11382;48.086;11.632;2023-07-13T14:17:50;26.20;83.20
22430;DHT22;11382;48.086;11.632;2023-07-13T14:20:20;26.20;85.30
22430;DHT22;11382;48.086;11.632;2023-07-13T14:22:49;26.20;82.90
22430;DHT22;11382;48.086;11.632;2023-07-13T14:25:18;26.60;83.70
22430;DHT22;11382;48.086;11.632;2023-07-13T14:27:49;26.80;82.00
22430;DHT22;11382;48.086;11.632;2023-07-13T14:30:21;27.00;79.40
22430;DHT22;11382;48.086;11.632;2023-07-13T14:32:51;27.10;80.40
22430;DHT22;11382;48.086;11.632;2023-07-13T14:35:21;26.50;82.10
22430;DHT22;11382;48.086;11.632;2023-07-13T14:37:50;25.80;83.50
22430;DHT22;11382;48.086;11.632;2023-07-13T14:40:24;25.10;85.90
22430;DHT22;11382;48.086;11.632;2023-07-13T14:42:53;24.70;87.70
22430;DHT22;11382;48.086;11.632;2023-07-13T14:45:21;24.40;88.30
22430;DHT22;11382;48.086;11.632;2023-07-13T14:47:51;24.30;89.40
22430;DHT22;11382;48.086;11.632;2023-07-13T14:50:21;24.60;88.10
22430;DHT22;11382;48.086;11.632;2023-07-13T14:52:49;24.60;87.80
22430;DHT22;11382;48.086;11.632;2023-07-13T14:55:18;24.60;89.20
22430;DHT22;11382;48.086;11.632;2023-07-13T14:57:48;24.80;87.20
22430;DHT22;11382;48.086;11.632;2023-07-13T15:00:19;24.80;88.20
22430;DHT22;11382;48.086;11.632;2023-07-13T15:02:51;25.00;86.50
22430;DHT22;11382;48.086;11.632;2023-07-13T15:05:22;25.20;88.20
22430;DHT22;11382;48.086;11.632;2023-07-13T15:07:52;25.30;85.30
22430;DHT22;11382;48.086;11.632;2023-07-13T15:10:22;25.10;85.90
22430;DHT22;11382;48.086;11.632;2023-07-13T15:12:51;25.00;85.50
22430;DHT22;11382;48.086;11.632;2023-07-13T15:15:20;24.80;84.00
22430;DHT22;11382;48.086;11.632;2023-07-13T15:17:48;24.80;88.30
22430;DHT22;11382;48.086;11.632;2023-07-13T15:20:21;25.00;85.90
22430;DHT22;11382;48.086;11.632;2023-07-13T15:22:52;25.30;87.60
22430;DHT22;11382;48.086;11.632;2023-07-13T15:25:24;25.20;83.80
22430;DHT22;11382;48.086;11.632;2023-07-13T15:27:54;25.10;84.70
22430;DHT22;11382;48.086;11.632;2023-07-13T15:30:25;25.30;85.70
22430;DHT22;11382;48.086;11.632;2023-07-13T15:32:55;25.30;85.00
22430;DHT22;11382;48.086;11.632;2023-07-13T15:35:26;25.20;84.30
22430;DHT22;11382;48.086;11.632;2023-07-13T15:37:55;25.00;86.00